首页
METAR-TAF:

METAR-TAF

机场 :

米蘭-利納特機場

米蘭, 意大利

纬度: 45-26N, 经度: 009-17E, 海拔: 107米

当前天气观测

该预报发布于11分钟前的20:20 UTC
风速3节,风向南转西南
温度 7°C
湿度 93%
气压 1006 hPa
能見度: 7000
多云层高于400英尺

METAR: LIML 172020Z 20003KT 7000 BKN004 07/06 Q1006 NOSIG

时间: 21:31 (20:31 UTC)

预报

该预报发布于3小时和31分钟前的17:00 UTC
预报有效从17日的 18点(UTC)到 18日的 18点(UTC)
风速5节,风向多变
能見度: 7000
散云层高于1500英尺
多云层高于5000英尺
几率 40% :
短暂存在
从 17日的 21点(UTC)到 18日的 03点(UTC)
能見度: 4000
阵雨
短暂存在
从 18日的 03点(UTC)到 18日的 07点(UTC)
能見度: 0800
碎片雾
成为
从 18日的 16点(UTC)到 18日的 18点(UTC)
能見度: 4000

TAF: LIML 171700Z 1718/1818 VRB05KT 7000 SCT015 BKN050 PROB40 TEMPO 1721/1803 4000 SHRA TEMPO 1803/1807 0800 BCFG BECMG 1816/1818 4000 RA

超过4000个机场的气象观测和天气预报(METAR&TAF报告)。

可查询的气象台以黄色和红色小点在地图上表示。

将鼠标移到小点上方,可查看气象台名称。

然后点击查看天气观测和预报。

如需切换地图:点击带黑十字的绿色按钮放大地图;点击带横线的绿色按钮缩小地图;或者点击绿色箭头查看邻近地区的地图。


METAR-TAF: